createdAt,value
2019-03-21T00:02:20.002Z,91.17
2019-03-21T00:04:53.134Z,90.44
2019-03-21T00:07:22.761Z,90.58
2019-03-21T00:10:29.677Z,90.37
2019-03-21T00:12:59.635Z,89.94
2019-03-21T00:15:33.810Z,91.01
2019-03-21T00:18:06.816Z,91.55
2019-03-21T00:20:36.850Z,92.21
2019-03-21T00:23:06.511Z,92.26
2019-03-21T00:25:36.519Z,92.59
2019-03-21T00:28:06.176Z,92.54
2019-03-21T00:30:35.768Z,92.30
2019-03-21T00:33:05.454Z,92.55
2019-03-21T00:35:35.104Z,93.19
2019-03-21T00:38:04.735Z,92.75
2019-03-21T00:40:37.245Z,92.92
2019-03-21T00:43:08.644Z,92.77
2019-03-21T00:45:38.334Z,94.26
2019-03-21T00:48:10.042Z,94.45
2019-03-21T00:50:39.671Z,95.17
2019-03-21T00:53:09.334Z,95.42
2019-03-21T00:55:39.697Z,95.58
2019-03-21T00:58:09.392Z,95.71
2019-03-21T01:00:44.782Z,95.57
2019-03-21T01:03:15.024Z,94.77
2019-03-21T01:05:44.918Z,95.05
2019-03-21T01:08:14.569Z,95.50
2019-03-21T01:10:44.215Z,95.56
2019-03-21T01:13:13.999Z,94.67
2019-03-21T01:15:43.649Z,95.16
2019-03-21T01:18:13.189Z,95.21
2019-03-21T01:20:42.820Z,95.47
2019-03-21T01:23:12.368Z,95.81
2019-03-21T01:25:45.411Z,95.67
2019-03-21T01:28:15.024Z,95.65
2019-03-21T01:30:44.693Z,95.87
2019-03-21T01:33:14.325Z,95.74
2019-03-21T01:35:44.162Z,95.83
2019-03-21T01:38:13.772Z,96.02
2019-03-21T01:40:44.676Z,96.06
2019-03-21T01:43:14.316Z,95.97
2019-03-21T01:45:44.064Z,96.12
2019-03-21T01:48:13.684Z,96.53
2019-03-21T01:50:43.340Z,96.70
2019-03-21T01:53:12.952Z,96.75
2019-03-21T01:55:42.596Z,97.78
2019-03-21T01:58:12.206Z,98.28
2019-03-21T02:00:41.870Z,97.03
2019-03-21T02:03:11.397Z,96.85
2019-03-21T02:05:41.391Z,97.02
2019-03-21T02:08:10.998Z,97.10
2019-03-21T02:10:40.558Z,96.76
2019-03-21T02:13:10.170Z,96.85
2019-03-21T02:15:40.831Z,97.01
2019-03-21T02:18:10.572Z,97.04
2019-03-21T02:20:40.124Z,97.07
2019-03-21T02:23:09.653Z,97.04
2019-03-21T02:25:39.317Z,96.67
2019-03-21T02:28:08.932Z,96.97
2019-03-21T02:30:38.779Z,96.88
2019-03-21T02:33:12.303Z,96.94
2019-03-21T02:35:41.962Z,97.15
2019-03-21T02:38:11.583Z,96.97
2019-03-21T02:40:41.253Z,96.73
2019-03-21T02:43:10.741Z,96.80
2019-03-21T02:45:40.572Z,96.74
2019-03-21T02:48:10.205Z,96.28
2019-03-21T02:50:39.859Z,96.20
2019-03-21T02:53:09.472Z,96.24
2019-03-21T02:55:39.120Z,96.76
2019-03-21T02:58:08.724Z,96.46
2019-03-21T03:00:38.401Z,96.42
2019-03-21T03:03:09.046Z,96.62
2019-03-21T03:05:38.691Z,96.65
2019-03-21T03:08:08.555Z,96.60
2019-03-21T03:10:41.039Z,96.41
2019-03-21T03:13:10.643Z,95.81
2019-03-21T03:15:40.309Z,96.24
2019-03-21T03:18:10.180Z,96.78
2019-03-21T03:20:39.823Z,96.88
2019-03-21T03:23:09.452Z,96.89
2019-03-21T03:25:39.124Z,97.05
2019-03-21T03:28:20.226Z,97.42
2019-03-21T03:30:50.147Z,97.30
2019-03-21T03:33:19.745Z,97.43
2019-03-21T03:35:49.406Z,97.18
2019-03-21T03:38:18.929Z,96.90
2019-03-21T03:40:51.251Z,97.01
2019-03-21T03:43:20.860Z,97.23
2019-03-21T03:45:50.553Z,97.12
2019-03-21T03:48:20.393Z,96.60
2019-03-21T03:50:50.021Z,96.50
2019-03-21T03:53:19.743Z,97.12
2019-03-21T03:55:49.485Z,96.99
2019-03-21T03:58:20.118Z,95.96
2019-03-21T04:00:49.736Z,96.43
2019-03-21T04:03:19.716Z,96.90
2019-03-21T04:05:49.341Z,96.79
2019-03-21T04:08:19.418Z,96.87
2019-03-21T04:10:49.154Z,97.20
2019-03-21T04:13:18.860Z,97.37
2019-03-21T04:15:53.168Z,97.39
2019-03-21T04:18:20.070Z,97.45
2019-03-21T04:20:49.991Z,97.09
2019-03-21T04:23:20.110Z,97.08
2019-03-21T04:25:55.805Z,96.97
2019-03-21T04:28:25.436Z,97.01
2019-03-21T04:30:55.044Z,96.77
2019-03-21T04:33:24.894Z,96.97
2019-03-21T04:35:54.507Z,97.67
2019-03-21T04:38:24.515Z,97.97
2019-03-21T04:40:54.188Z,97.44
2019-03-21T04:43:24.017Z,97.27
2019-03-21T04:46:02.808Z,96.80
2019-03-21T04:48:25.009Z,96.88
2019-03-21T04:50:54.562Z,96.91
2019-03-21T04:53:24.206Z,97.10
2019-03-21T04:55:53.862Z,97.45
2019-03-21T04:58:23.474Z,98.09
2019-03-21T05:00:53.189Z,98.46
2019-03-21T05:03:23.993Z,97.69
2019-03-21T05:05:53.583Z,97.49
2019-03-21T05:08:23.201Z,97.53
2019-03-21T05:10:52.813Z,97.20
2019-03-21T05:13:22.395Z,97.50
2019-03-21T05:15:52.097Z,98.27
2019-03-21T05:18:25.602Z,98.07
2019-03-21T05:20:55.350Z,97.45
2019-03-21T05:23:24.996Z,95.91
2019-03-21T05:25:54.763Z,95.58
2019-03-21T05:28:24.577Z,96.28
2019-03-21T05:31:03.223Z,96.50
2019-03-21T05:33:33.584Z,96.57
2019-03-21T05:36:03.268Z,97.03
2019-03-21T05:38:33.246Z,97.21
2019-03-21T05:41:02.892Z,97.70
2019-03-21T05:43:39.199Z,97.31
2019-03-21T05:46:09.003Z,97.58
2019-03-21T05:48:38.695Z,97.73
2019-03-21T05:51:08.193Z,98.02
2019-03-21T05:53:38.381Z,97.56
2019-03-21T05:56:08.457Z,97.67
2019-03-21T05:58:38.139Z,97.24
2019-03-21T06:01:07.819Z,97.11
2019-03-21T06:03:46.960Z,97.31
2019-03-21T06:06:20.710Z,97.57
2019-03-21T06:08:50.406Z,97.45
2019-03-21T06:11:20.176Z,97.23
2019-03-21T06:13:49.704Z,97.47
2019-03-21T06:16:19.533Z,97.70
2019-03-21T06:19:03.365Z,98.11
2019-03-21T06:21:50.838Z,98.24
2019-03-21T06:24:51.451Z,96.83
2019-03-21T06:27:38.317Z,96.64
2019-03-21T06:30:10.008Z,96.73
2019-03-21T06:32:39.780Z,96.70
2019-03-21T06:35:24.852Z,96.34
2019-03-21T06:37:54.741Z,96.21
2019-03-21T06:40:24.350Z,95.73
2019-03-21T06:42:54.258Z,96.07
2019-03-21T06:45:23.923Z,96.38
2019-03-21T06:47:53.481Z,96.53
2019-03-21T06:50:23.146Z,96.69
2019-03-21T06:52:52.763Z,96.53
2019-03-21T06:55:22.702Z,96.01
2019-03-21T06:57:52.359Z,95.67
2019-03-21T07:00:21.969Z,95.27
2019-03-21T07:02:51.548Z,94.47
2019-03-21T07:05:21.563Z,94.54
2019-03-21T07:07:51.165Z,94.50
2019-03-21T07:10:20.822Z,94.03
2019-03-21T07:12:50.686Z,93.77
2019-03-21T07:15:20.325Z,93.55
2019-03-21T07:17:49.875Z,93.41
2019-03-21T07:20:19.450Z,93.16
2019-03-21T07:22:49.121Z,92.59
2019-03-21T07:25:18.789Z,92.10
2019-03-21T07:27:48.425Z,91.80
2019-03-21T07:30:18.474Z,89.90
2019-03-21T07:32:48.166Z,89.26
2019-03-21T07:35:17.830Z,89.08
2019-03-21T07:37:47.649Z,89.60
2019-03-21T07:40:17.262Z,89.83
2019-03-21T07:42:46.910Z,90.55
2019-03-21T07:45:17.448Z,90.25
2019-03-21T07:47:47.152Z,88.62
2019-03-21T07:50:16.867Z,87.02
2019-03-21T07:52:46.524Z,86.00
2019-03-21T07:55:16.169Z,84.84
2019-03-21T07:57:46.012Z,84.01
2019-03-21T08:00:16.118Z,83.58
2019-03-21T08:02:45.805Z,84.21
2019-03-21T08:05:15.723Z,84.24
2019-03-21T08:07:45.222Z,84.61
2019-03-21T08:10:14.909Z,84.66
2019-03-21T08:12:44.533Z,83.03
2019-03-21T08:15:14.254Z,82.44
2019-03-21T08:17:44.234Z,81.72
2019-03-21T08:20:14.201Z,81.04
2019-03-21T08:22:43.797Z,80.09
2019-03-21T08:25:13.498Z,79.42
2019-03-21T08:27:43.213Z,80.80
2019-03-21T08:30:34.723Z,80.80
2019-03-21T08:33:04.676Z,80.36
2019-03-21T08:35:34.341Z,80.36
2019-03-21T08:38:03.960Z,79.51
2019-03-21T08:40:33.601Z,79.86
2019-03-21T08:43:22.127Z,79.90
2019-03-21T08:45:51.861Z,79.83
2019-03-21T08:48:21.550Z,79.83
2019-03-21T08:50:51.334Z,79.95
2019-03-21T08:53:21.011Z,80.33
2019-03-21T08:55:50.713Z,78.98
2019-03-21T08:58:20.416Z,78.40
2019-03-21T09:00:51.950Z,76.90
2019-03-21T09:03:21.617Z,76.90
2019-03-21T09:05:51.464Z,76.51
2019-03-21T09:08:21.146Z,77.08
2019-03-21T09:10:50.935Z,76.26
2019-03-21T09:13:20.641Z,76.26
2019-03-21T09:15:50.681Z,73.82
2019-03-21T09:18:20.337Z,70.52
2019-03-21T09:20:50.137Z,70.46
2019-03-21T09:23:19.832Z,69.06
2019-03-21T09:25:51.377Z,66.37
2019-03-21T09:28:21.034Z,66.37
2019-03-21T09:30:50.961Z,65.25
2019-03-21T09:33:20.943Z,64.49
2019-03-21T09:35:50.967Z,63.26
2019-03-21T09:38:20.633Z,62.89
2019-03-21T09:40:50.430Z,63.20
2019-03-21T09:43:20.113Z,63.17
2019-03-21T09:45:49.808Z,63.65
2019-03-21T09:48:19.551Z,62.60
2019-03-21T09:50:49.247Z,59.89
2019-03-21T09:53:18.957Z,59.75
2019-03-21T09:55:48.650Z,60.99
2019-03-21T09:58:18.343Z,59.68
2019-03-21T10:00:47.987Z,59.82
2019-03-21T10:03:17.699Z,59.22
2019-03-21T10:05:47.526Z,59.18
2019-03-21T10:08:17.184Z,58.42
2019-03-21T10:10:46.887Z,57.89
2019-03-21T10:13:16.561Z,56.74
2019-03-21T10:15:46.285Z,56.97
2019-03-21T10:18:15.950Z,58.52
2019-03-21T10:20:45.898Z,56.77
2019-03-21T10:23:15.575Z,56.37
2019-03-21T10:25:45.305Z,57.15
2019-03-21T10:28:15.001Z,57.48
2019-03-21T10:30:44.659Z,57.11
2019-03-21T10:33:15.356Z,55.27
2019-03-21T10:35:45.146Z,57.02
2019-03-21T10:38:14.867Z,56.62
2019-03-21T10:40:44.710Z,55.43
2019-03-21T10:43:14.696Z,54.51
2019-03-21T10:45:44.386Z,52.54
2019-03-21T10:48:14.052Z,55.44
2019-03-21T10:50:43.820Z,54.44
2019-03-21T10:53:13.526Z,53.29
2019-03-21T10:55:43.325Z,52.76
2019-03-21T10:58:13.092Z,52.24
2019-03-21T11:00:42.859Z,53.81
2019-03-21T11:03:12.559Z,52.77
2019-03-21T11:05:42.554Z,55.27
2019-03-21T11:08:12.272Z,53.51
2019-03-21T11:10:41.933Z,53.92
2019-03-21T11:13:11.629Z,52.05
2019-03-21T11:15:41.289Z,53.72
2019-03-21T11:18:11.085Z,51.38
2019-03-21T11:20:41.385Z,54.05
2019-03-21T11:23:11.287Z,54.40
2019-03-21T11:25:41.128Z,53.85
2019-03-21T11:28:11.285Z,54.23
2019-03-21T11:30:42.491Z,55.44
2019-03-21T11:33:12.720Z,53.40
2019-03-21T11:35:42.497Z,52.14
2019-03-21T11:38:12.409Z,52.14
2019-03-21T11:40:42.191Z,53.80
2019-03-21T11:43:14.008Z,53.83
2019-03-21T11:45:43.823Z,54.47
2019-03-21T11:48:13.521Z,52.57
2019-03-21T11:50:43.422Z,52.49
2019-03-21T11:53:13.096Z,52.37
2019-03-21T11:55:42.835Z,52.04
2019-03-21T11:58:18.668Z,52.77
2019-03-21T12:00:55.365Z,52.84
2019-03-21T12:03:25.174Z,52.57
2019-03-21T12:05:55.598Z,53.02
2019-03-21T12:08:25.489Z,53.16
2019-03-21T12:10:55.201Z,52.66
2019-03-21T12:13:25.042Z,53.67
2019-03-21T12:15:54.781Z,53.53
2019-03-21T12:18:24.509Z,53.64
2019-03-21T12:20:54.234Z,54.34
2019-03-21T12:23:24.000Z,53.49
2019-03-21T12:25:53.965Z,52.92
2019-03-21T12:28:59.564Z,51.97
2019-03-21T12:31:29.997Z,52.90
2019-03-21T12:33:59.687Z,51.40
2019-03-21T12:36:29.574Z,51.35
2019-03-21T12:38:59.822Z,53.19
2019-03-21T12:41:29.726Z,52.71
2019-03-21T12:43:59.416Z,51.89
2019-03-21T12:46:29.166Z,52.31
2019-03-21T12:48:58.868Z,52.91
2019-03-21T12:51:28.672Z,51.73
2019-03-21T12:53:58.386Z,52.51
2019-03-21T12:56:28.083Z,52.62
2019-03-21T12:58:57.779Z,51.50
2019-03-21T13:01:27.650Z,50.96
2019-03-21T13:03:57.544Z,51.05
2019-03-21T13:06:27.231Z,50.41
2019-03-21T13:08:56.933Z,52.12
2019-03-21T13:11:26.624Z,52.58
2019-03-21T13:13:56.618Z,50.66
2019-03-21T13:16:26.452Z,50.64
2019-03-21T13:18:56.275Z,50.77
2019-03-21T13:21:26.017Z,49.99
2019-03-21T13:23:55.945Z,51.82
2019-03-21T13:26:25.814Z,51.50
2019-03-21T13:28:55.542Z,50.89
2019-03-21T13:31:25.278Z,51.84
2019-03-21T13:33:55.066Z,52.06
2019-03-21T13:36:24.751Z,52.19
2019-03-21T13:38:54.656Z,51.54
2019-03-21T13:41:24.314Z,52.23
2019-03-21T13:43:54.122Z,51.83
2019-03-21T13:46:23.879Z,52.68
2019-03-21T13:48:53.565Z,53.05
2019-03-21T13:51:23.310Z,54.68
2019-03-21T13:53:53.018Z,53.97
2019-03-21T13:56:22.718Z,52.69
2019-03-21T13:58:54.490Z,52.08
2019-03-21T14:01:26.235Z,53.13
2019-03-21T14:03:57.134Z,52.51
2019-03-21T14:06:47.911Z,52.86
2019-03-21T14:09:20.157Z,52.21
2019-03-21T14:11:49.177Z,52.33
2019-03-21T14:14:18.926Z,50.13
2019-03-21T14:16:51.025Z,50.73
2019-03-21T14:19:20.739Z,50.15
2019-03-21T14:21:50.430Z,51.14
2019-03-21T14:24:20.110Z,49.07
2019-03-21T14:26:49.855Z,50.66
2019-03-21T14:29:20.568Z,50.54
2019-03-21T14:31:50.575Z,51.29
2019-03-21T14:34:20.238Z,50.06
2019-03-21T14:36:50.042Z,50.77
2019-03-21T14:39:19.773Z,51.23
2019-03-21T14:41:49.492Z,50.62
2019-03-21T14:44:19.156Z,51.31
2019-03-21T14:46:48.860Z,52.75
2019-03-21T14:49:18.510Z,51.97
2019-03-21T14:51:48.208Z,52.80
2019-03-21T14:54:17.997Z,53.71
2019-03-21T14:56:47.703Z,52.59
2019-03-21T14:59:17.358Z,51.21
2019-03-21T15:01:47.287Z,50.53
2019-03-21T15:04:16.979Z,50.48
2019-03-21T15:06:46.705Z,49.94
2019-03-21T15:09:16.451Z,50.83
2019-03-21T15:11:47.378Z,51.52
2019-03-21T15:14:17.109Z,51.50
2019-03-21T15:16:46.897Z,52.14
2019-03-21T15:19:16.584Z,51.53
2019-03-21T15:21:46.260Z,52.90
2019-03-21T15:24:15.942Z,55.11
2019-03-21T15:26:45.605Z,55.91
2019-03-21T15:29:15.328Z,55.54
2019-03-21T15:31:44.985Z,56.04
2019-03-21T15:34:14.746Z,55.11
2019-03-21T15:36:44.492Z,54.54
2019-03-21T15:39:14.341Z,56.25
2019-03-21T15:41:44.230Z,56.56
2019-03-21T15:44:13.926Z,55.98
2019-03-21T15:46:43.598Z,56.93
2019-03-21T15:49:13.377Z,56.80
2019-03-21T15:51:43.060Z,55.95
2019-03-21T15:54:12.929Z,56.90
2019-03-21T15:56:43.061Z,56.91
2019-03-21T15:59:12.903Z,57.13
2019-03-21T16:01:42.802Z,56.66
2019-03-21T16:04:12.559Z,54.90
2019-03-21T16:06:42.306Z,55.13
2019-03-21T16:09:12.145Z,54.64
2019-03-21T16:11:41.872Z,54.94
2019-03-21T16:14:11.591Z,57.14
2019-03-21T16:16:41.286Z,59.03
2019-03-21T16:19:10.997Z,61.15
2019-03-21T16:21:40.720Z,60.30
2019-03-21T16:24:12.304Z,58.50
2019-03-21T16:26:42.597Z,56.99
2019-03-21T16:29:12.305Z,58.36
2019-03-21T16:31:42.326Z,59.83
2019-03-21T16:34:12.093Z,60.16
2019-03-21T16:36:41.841Z,60.16
2019-03-21T16:39:11.578Z,60.63
2019-03-21T16:41:41.397Z,63.39
2019-03-21T16:44:11.215Z,65.77
2019-03-21T16:46:41.280Z,66.53
2019-03-21T16:49:11.111Z,67.25
2019-03-21T16:51:43.361Z,69.07
2019-03-21T16:54:17.248Z,69.80
2019-03-21T16:56:46.123Z,71.56
2019-03-21T16:59:15.886Z,73.29
2019-03-21T17:01:45.639Z,74.00
2019-03-21T17:04:15.436Z,74.37
2019-03-21T17:06:45.404Z,75.04
2019-03-21T17:09:15.211Z,76.26
2019-03-21T17:11:45.348Z,77.30
2019-03-21T17:14:17.909Z,77.40
2019-03-21T17:16:47.559Z,77.22
2019-03-21T17:19:17.287Z,77.25
2019-03-21T17:21:47.633Z,76.54
2019-03-21T17:24:28.894Z,76.53
2019-03-21T17:26:49.236Z,76.64
2019-03-21T17:29:19.013Z,77.13
2019-03-21T17:31:48.695Z,78.44
2019-03-21T17:34:18.372Z,78.68
2019-03-21T17:36:48.045Z,78.80
2019-03-21T17:39:17.898Z,79.72
2019-03-21T17:41:47.561Z,80.12
2019-03-21T17:44:17.252Z,80.83
2019-03-21T17:46:46.921Z,80.99
2019-03-21T17:49:16.662Z,81.61
2019-03-21T17:51:46.753Z,82.19
2019-03-21T17:54:16.884Z,81.96
2019-03-21T17:56:46.575Z,82.39
2019-03-21T17:59:16.747Z,82.94
2019-03-21T18:01:46.401Z,83.34
2019-03-21T18:04:16.588Z,84.59
2019-03-21T18:06:46.250Z,85.52
2019-03-21T18:09:16.024Z,85.86
2019-03-21T18:11:45.724Z,85.44
2019-03-21T18:14:15.447Z,85.55
2019-03-21T18:16:45.197Z,85.05
2019-03-21T18:19:14.911Z,85.34
2019-03-21T18:21:44.564Z,85.15
2019-03-21T18:24:14.281Z,85.04
2019-03-21T18:26:44.287Z,85.11
2019-03-21T18:29:14.026Z,84.87
2019-03-21T18:31:43.717Z,85.27
2019-03-21T18:34:13.305Z,85.53
2019-03-21T18:36:43.092Z,85.88
2019-03-21T18:39:14.370Z,86.29
2019-03-21T18:41:44.209Z,86.05
2019-03-21T18:44:13.871Z,86.27
2019-03-21T18:46:43.581Z,86.43
2019-03-21T18:49:13.335Z,86.59
2019-03-21T18:51:43.120Z,86.69
2019-03-21T18:54:12.877Z,86.88
2019-03-21T18:56:42.749Z,86.75
2019-03-21T18:59:12.417Z,86.63
2019-03-21T19:01:42.132Z,86.94
2019-03-21T19:04:11.883Z,87.53
2019-03-21T19:06:41.594Z,87.54
2019-03-21T19:09:12.471Z,87.25
2019-03-21T19:11:42.174Z,87.64
2019-03-21T19:14:12.081Z,88.34
2019-03-21T19:16:41.811Z,88.15
2019-03-21T19:19:12.168Z,88.18
2019-03-21T19:21:41.977Z,88.04
2019-03-21T19:24:11.846Z,88.37
2019-03-21T19:26:41.617Z,88.74
2019-03-21T19:29:11.281Z,89.14
2019-03-21T19:31:41.645Z,88.41
2019-03-21T19:34:11.428Z,88.61
2019-03-21T19:36:41.133Z,88.24
2019-03-21T19:39:11.277Z,88.25
2019-03-21T19:41:40.965Z,88.19
2019-03-21T19:44:10.645Z,88.68
2019-03-21T19:46:40.458Z,88.91
2019-03-21T19:49:10.320Z,88.92
2019-03-21T19:51:40.040Z,88.71
2019-03-21T19:54:09.829Z,88.71
2019-03-21T19:56:39.541Z,89.30
2019-03-21T19:59:09.486Z,89.49
2019-03-21T20:01:39.257Z,89.95
2019-03-21T20:04:08.905Z,89.86
2019-03-21T20:06:38.767Z,90.64
2019-03-21T20:09:09.008Z,90.34
2019-03-21T20:11:38.779Z,90.23
2019-03-21T20:14:09.046Z,90.01
2019-03-21T20:16:38.739Z,90.29
2019-03-21T20:19:29.398Z,89.65
2019-03-21T20:21:59.562Z,89.65
2019-03-21T20:24:29.275Z,90.35
2019-03-21T20:27:00.500Z,90.35
2019-03-21T20:29:30.393Z,90.59
2019-03-21T20:32:00.149Z,90.59
2019-03-21T20:34:29.877Z,90.94
2019-03-21T20:37:00.581Z,91.38
2019-03-21T20:39:30.675Z,91.29
2019-03-21T20:42:00.432Z,90.50
2019-03-21T20:44:30.130Z,90.50
2019-03-21T20:47:00.068Z,91.18
2019-03-21T20:49:29.925Z,92.60
2019-03-21T20:51:59.751Z,92.71
2019-03-21T20:54:29.475Z,91.21
2019-03-21T20:56:59.546Z,90.81
2019-03-21T20:59:29.304Z,90.98
2019-03-21T21:02:02.903Z,91.50
2019-03-21T21:04:30.740Z,91.81
2019-03-21T21:07:00.607Z,92.73
2019-03-21T21:09:30.791Z,93.95
2019-03-21T21:12:00.517Z,93.34
2019-03-21T21:14:30.498Z,92.91
2019-03-21T21:17:00.207Z,92.66
2019-03-21T21:19:29.877Z,93.18
2019-03-21T21:21:59.632Z,93.56
2019-03-21T21:24:29.316Z,92.91
2019-03-21T21:26:59.020Z,93.31
2019-03-21T21:29:28.695Z,93.44
2019-03-21T21:31:58.516Z,93.41
2019-03-21T21:34:28.281Z,93.28
2019-03-21T21:36:57.922Z,93.68
2019-03-21T21:39:27.643Z,93.41
2019-03-21T21:41:57.383Z,93.84
2019-03-21T21:44:27.450Z,94.16
2019-03-21T21:46:57.148Z,94.14
2019-03-21T21:49:26.974Z,94.27
2019-03-21T21:51:56.779Z,93.90
2019-03-21T21:54:26.465Z,93.47
2019-03-21T21:56:56.149Z,94.08
2019-03-21T21:59:25.824Z,94.50
2019-03-21T22:01:55.544Z,94.23
2019-03-21T22:04:25.221Z,94.37
2019-03-21T22:06:55.164Z,93.96
2019-03-21T22:09:24.830Z,94.60
2019-03-21T22:11:54.750Z,94.34
2019-03-21T22:14:24.543Z,94.15
2019-03-21T22:16:54.232Z,94.75
2019-03-21T22:19:24.153Z,95.08
2019-03-21T22:21:53.893Z,95.05
2019-03-21T22:24:23.573Z,95.20
2019-03-21T22:26:53.280Z,95.52
2019-03-21T22:29:22.953Z,95.82
2019-03-21T22:31:52.664Z,95.43
2019-03-21T22:34:22.349Z,94.91
2019-03-21T22:36:52.068Z,94.92
2019-03-21T22:39:21.765Z,95.37
2019-03-21T22:41:51.550Z,95.47
2019-03-21T22:44:21.255Z,95.57
2019-03-21T22:46:51.014Z,95.63
2019-03-21T22:49:20.735Z,95.37
2019-03-21T22:51:50.400Z,94.99
2019-03-21T22:54:20.121Z,95.90
2019-03-21T22:56:49.803Z,96.87
2019-03-21T22:59:19.519Z,97.00
2019-03-21T23:01:49.345Z,96.15
2019-03-21T23:04:19.107Z,96.27
2019-03-21T23:06:48.817Z,97.03
2019-03-21T23:09:18.603Z,97.31
2019-03-21T23:11:48.443Z,97.72
2019-03-21T23:14:18.556Z,97.73
2019-03-21T23:16:48.224Z,97.07
2019-03-21T23:19:18.002Z,96.38
2019-03-21T23:21:47.778Z,96.66
2019-03-21T23:24:17.489Z,96.83
2019-03-21T23:26:52.946Z,96.67
2019-03-21T23:29:19.147Z,96.98
2019-03-21T23:31:48.882Z,97.17
2019-03-21T23:34:18.588Z,97.48
2019-03-21T23:36:48.248Z,97.32
2019-03-21T23:39:18.381Z,96.82
2019-03-21T23:41:48.065Z,96.75
2019-03-21T23:44:17.736Z,96.50
2019-03-21T23:46:47.608Z,96.89
2019-03-21T23:49:17.269Z,96.80
2019-03-21T23:51:46.963Z,97.42
2019-03-21T23:54:16.746Z,97.79
2019-03-21T23:56:46.417Z,97.03
2019-03-21T23:59:16.115Z,96.40
